This is the latest recevied weather packets stored in our database for station/object LU1HKO-13. If no packets are shown the sender has not sent any weather packets the latest 10 day(s).
| Time | Temp. | Humidity | Pressure | Rain* | Wind** | Luminosity | Snow |
|---|---|---|---|---|---|---|---|
| 1777687262 | 18.33° C | 52% | 1023.6 hPa | 0 mm | - | - | - |
| 1777683659 | 19.44° C | 62% | 1021.8 hPa | 0 mm | - | - | - |
| 1777678255 | 20° C | 56% | 1019 hPa | 0 mm | - | - | - |
| 1777676432 | 21.11° C | 52% | 1017.9 hPa | 0 mm | - | - | - |
| 1777674672 | 21.67° C | 50% | 1017 hPa | 0 mm | - | - | - |
| 1777674065 | 21.67° C | 49% | 1016.8 hPa | 0 mm | - | - | - |
| 1777672242 | 22.78° C | 44% | 1016 hPa | 0 mm | - | - | - |
| 1777666229 | 25.56° C | 35% | 1013.9 hPa | 0 mm | - | - | - |
| 1777661452 | 26.67° C | 32% | 1013 hPa | 0 mm | - | - | - |
| 1777660825 | 27.78° C | 31% | 1012.9 hPa | 0 mm | - | - | - |
| 1777660238 | 27.78° C | 31% | 1012.8 hPa | 0 mm | - | - | - |
| 1777659064 | 28.33° C | 32% | 1012.7 hPa | 0 mm | - | - | - |
| 1777657849 | 28.89° C | 32% | 1012.5 hPa | 0 mm | - | - | - |
| 1777657242 | 27.78° C | 32% | 1012.4 hPa | 0 mm | - | - | - |
| 1777655420 | 29.44° C | 29% | 1012.4 hPa | 0 mm | - | - | - |
| 1777654266 | 28.33° C | 30% | 1012.6 hPa | 0 mm | - | - | - |
| 1777649469 | 25.56° C | 34% | 1012.9 hPa | 0 mm | - | - | - |
| 1777647040 | 26.11° C | 35% | 1013 hPa | 0 mm | - | - | - |
| 1777641635 | 22.78° C | 57% | 1012.6 hPa | 0 mm | - | - | - |
| 1777640420 | 21.67° C | 62% | 1012.4 hPa | 0 mm | - | - | - |
| 1777639894 | 21.67° C | 64% | 1012.4 hPa | 0 mm | - | - | - |
| 1777634469 | 15° C | 82% | 1011.3 hPa | 0 mm | - | - | - |
| 1777633274 | 13.33° C | 82% | 1011.2 hPa | 0 mm | - | - | - |
| 1777632647 | 13.33° C | 82% | 1011 hPa | 0 mm | - | - | - |
| 1777629671 | 13.33° C | 78% | 1010.8 hPa | 0 mm | - | - | - |
* Rain latest hour (hover to see other rain measurements)
** Current wind speed in m/s (hover to see current wind gust speed)